createdAt,value
2023-03-18T00:01:57.479Z,98300.66
2023-03-18T00:05:00.403Z,98301.66
2023-03-18T00:08:04.815Z,98296.50
2023-03-18T00:11:08.763Z,98300.19
2023-03-18T00:14:11.322Z,98299.25
2023-03-18T00:17:14.018Z,98298.47
2023-03-18T00:20:18.661Z,98298.47
2023-03-18T00:23:22.593Z,98300.34
2023-03-18T00:26:26.025Z,98298.81
2023-03-18T00:29:28.713Z,98295.50
2023-03-18T00:32:31.704Z,98300.00
2023-03-18T00:35:34.656Z,98292.59
2023-03-18T00:38:37.561Z,98283.13
2023-03-18T00:41:40.201Z,98281.47
2023-03-18T00:44:44.255Z,98290.00
2023-03-18T00:47:49.628Z,98279.66
2023-03-18T00:50:52.273Z,98279.81
2023-03-18T00:53:57.709Z,98272.13
2023-03-18T00:57:00.724Z,98274.97
2023-03-18T01:00:07.220Z,98266.97
2023-03-18T01:03:09.956Z,98267.00
2023-03-18T01:06:14.558Z,98259.56
2023-03-18T01:09:17.135Z,98257.47
2023-03-18T01:12:19.670Z,98260.19
2023-03-18T01:15:23.457Z,98259.03
2023-03-18T01:18:26.263Z,98255.25
2023-03-18T01:21:28.927Z,98251.66
2023-03-18T01:24:36.798Z,98244.63
2023-03-18T01:27:40.953Z,98246.09
2023-03-18T01:30:44.377Z,98246.84
2023-03-18T01:33:48.081Z,98237.97
2023-03-18T01:36:50.898Z,98247.44
2023-03-18T01:39:55.585Z,98241.09
2023-03-18T01:43:13.477Z,98239.53
2023-03-18T01:46:39.602Z,98248.84
2023-03-18T01:49:50.348Z,98237.53
2023-03-18T01:52:56.535Z,98238.66
2023-03-18T01:56:01.504Z,98237.91
2023-03-18T01:59:05.155Z,98240.59
2023-03-18T02:02:10.522Z,98240.63
2023-03-18T02:05:20.789Z,98235.44
2023-03-18T02:08:23.663Z,98239.63
2023-03-18T02:11:27.331Z,98244.78
2023-03-18T02:14:33.248Z,98243.97
2023-03-18T02:17:39.436Z,98251.63
2023-03-18T02:20:52.584Z,98242.28
2023-03-18T02:24:20.066Z,98254.31
2023-03-18T02:27:27.617Z,98247.81
2023-03-18T02:30:43.707Z,98247.44
2023-03-18T02:33:48.434Z,98246.13
2023-03-18T02:36:51.244Z,98244.47
2023-03-18T02:39:53.755Z,98244.63
2023-03-18T02:43:20.584Z,98239.34
2023-03-18T02:46:47.128Z,98238.53
2023-03-18T02:49:50.263Z,98236.28
2023-03-18T02:52:52.921Z,98245.44
2023-03-18T02:55:58.434Z,98243.47
2023-03-18T02:59:02.103Z,98235.94
2023-03-18T03:02:04.821Z,98245.13
2023-03-18T03:05:09.378Z,98240.78
2023-03-18T03:08:12.247Z,98245.13
2023-03-18T03:11:19.313Z,98253.97
2023-03-18T03:14:22.556Z,98249.03
2023-03-18T03:17:29.346Z,98248.97
2023-03-18T03:20:37.687Z,98251.78
2023-03-18T03:23:40.456Z,98254.47
2023-03-18T03:26:43.220Z,98252.72
2023-03-18T03:29:47.369Z,98247.47
2023-03-18T03:32:50.254Z,98250.63
2023-03-18T03:35:52.831Z,98254.03
2023-03-18T03:38:55.721Z,98248.94
2023-03-18T03:41:58.505Z,98251.28
2023-03-18T03:45:01.303Z,98256.88
2023-03-18T03:48:04.307Z,98258.81
2023-03-18T03:51:07.731Z,98260.63
2023-03-18T03:54:13.390Z,98274.78
2023-03-18T03:57:17.112Z,98263.03
2023-03-18T04:00:21.430Z,98268.81
2023-03-18T04:03:25.840Z,98267.38
2023-03-18T04:06:28.826Z,98270.63
2023-03-18T04:09:36.853Z,98273.50
2023-03-18T04:12:40.046Z,98274.22
2023-03-18T04:15:43.212Z,98267.47
2023-03-18T04:18:50.344Z,98269.47
2023-03-18T04:21:54.191Z,98262.94
2023-03-18T04:24:56.963Z,98261.72
2023-03-18T04:27:59.794Z,98273.41
2023-03-18T04:31:02.557Z,98261.19
2023-03-18T04:34:05.485Z,98270.88
2023-03-18T04:37:09.149Z,98267.88
2023-03-18T04:40:14.268Z,98268.69
2023-03-18T04:43:17.120Z,98266.59
2023-03-18T04:46:22.552Z,98257.09
2023-03-18T04:49:26.057Z,98274.09
2023-03-18T04:52:30.682Z,98272.34
2023-03-18T04:55:34.380Z,98272.00
2023-03-18T04:58:39.617Z,98279.59
2023-03-18T05:01:50.432Z,98274.16
2023-03-18T05:04:53.931Z,98276.56
2023-03-18T05:07:57.202Z,98273.72
2023-03-18T05:11:00.120Z,98281.38
2023-03-18T05:14:03.399Z,98276.19
2023-03-18T05:17:17.559Z,98280.78
2023-03-18T05:20:29.861Z,98283.44
2023-03-18T05:23:34.602Z,98284.63
2023-03-18T05:26:39.058Z,98283.16
2023-03-18T05:29:43.676Z,98285.28
2023-03-18T05:32:54.205Z,98303.81
2023-03-18T05:36:07.955Z,98297.09
2023-03-18T05:39:16.468Z,98292.34
2023-03-18T05:42:19.990Z,98298.00
2023-03-18T05:45:23.286Z,98296.50
2023-03-18T05:48:30.331Z,98294.56
2023-03-18T05:51:38.255Z,98306.66
2023-03-18T05:54:44.808Z,98308.22
2023-03-18T05:57:49.892Z,98310.59
2023-03-18T06:00:53.878Z,98306.72
2023-03-18T06:03:56.658Z,98301.88
2023-03-18T06:06:59.381Z,98307.88
2023-03-18T06:10:02.059Z,98307.06
2023-03-18T06:13:04.851Z,98316.88
2023-03-18T06:16:08.906Z,98315.84
2023-03-18T06:19:12.259Z,98321.97
2023-03-18T06:22:15.690Z,98332.47
2023-03-18T06:25:20.281Z,98333.63
2023-03-18T06:28:24.952Z,98324.88
2023-03-18T06:31:28.338Z,98332.28
2023-03-18T06:34:31.902Z,98336.63
2023-03-18T06:37:34.926Z,98334.53
2023-03-18T06:40:38.023Z,98337.31
2023-03-18T06:43:42.002Z,98344.19
2023-03-18T06:46:45.430Z,98338.28
2023-03-18T06:49:49.964Z,98337.22
2023-03-18T06:52:56.849Z,98348.88
2023-03-18T06:56:06.292Z,98350.66
2023-03-18T06:59:21.827Z,98356.31
2023-03-18T07:02:25.311Z,98359.84
2023-03-18T07:05:30.959Z,98367.34
2023-03-18T07:08:33.975Z,98368.75
2023-03-18T07:11:37.384Z,98370.78
2023-03-18T07:14:45.791Z,98369.81
2023-03-18T07:17:50.735Z,98377.34
2023-03-18T07:20:54.628Z,98368.53
2023-03-18T07:23:59.643Z,98374.66
2023-03-18T07:27:02.427Z,98375.84
2023-03-18T07:30:05.370Z,98375.56
2023-03-18T07:33:09.005Z,98370.81
2023-03-18T07:36:13.790Z,98374.22
2023-03-18T07:39:16.536Z,98378.06
2023-03-18T07:42:19.607Z,98383.72
2023-03-18T07:45:22.303Z,98381.94
2023-03-18T07:48:25.539Z,98378.09
2023-03-18T07:51:28.264Z,98383.31
2023-03-18T07:54:31.043Z,98387.53
2023-03-18T07:57:33.678Z,98385.28
2023-03-18T08:00:36.365Z,98384.19
2023-03-18T08:03:38.973Z,98381.97
2023-03-18T08:06:41.769Z,98390.75
2023-03-18T08:09:44.381Z,98383.19
2023-03-18T08:12:53.173Z,98389.47
2023-03-18T08:15:56.655Z,98388.88
2023-03-18T08:19:02.602Z,98381.66
2023-03-18T08:22:05.299Z,98389.94
2023-03-18T08:25:08.434Z,98384.78
2023-03-18T08:28:11.962Z,98387.91
2023-03-18T08:31:14.822Z,98385.16
2023-03-18T08:34:20.425Z,98382.69
2023-03-18T08:37:23.273Z,98379.22
2023-03-18T08:40:27.155Z,98378.63
2023-03-18T08:43:30.221Z,98371.78
2023-03-18T08:46:33.125Z,98368.78
2023-03-18T08:49:35.943Z,98376.22
2023-03-18T08:52:38.925Z,98372.13
2023-03-18T08:55:42.240Z,98360.91
2023-03-18T08:58:46.101Z,98358.59
2023-03-18T09:01:49.485Z,98357.09
2023-03-18T09:04:54.546Z,98361.56
2023-03-18T09:07:58.881Z,98361.38
2023-03-18T09:11:01.735Z,98357.88
2023-03-18T09:14:04.799Z,98356.81
2023-03-18T09:17:07.820Z,98350.19
2023-03-18T09:20:13.046Z,98346.03
2023-03-18T09:23:15.958Z,98349.72
2023-03-18T09:26:18.795Z,98346.50
2023-03-18T09:29:21.741Z,98350.84
2023-03-18T09:32:24.308Z,98343.00
2023-03-18T09:35:29.291Z,98334.75
2023-03-18T09:38:32.717Z,98343.66
2023-03-18T09:41:50.579Z,98344.34
2023-03-18T09:44:59.881Z,98346.19
2023-03-18T09:48:11.753Z,98348.31
2023-03-18T09:51:33.564Z,98336.34
2023-03-18T09:54:45.058Z,98331.72
2023-03-18T09:57:48.889Z,98331.19
2023-03-18T10:00:59.522Z,98324.44
2023-03-18T10:04:21.798Z,98329.00
2023-03-18T10:07:30.320Z,98321.28
2023-03-18T10:10:38.072Z,98311.88
2023-03-18T10:13:47.067Z,98327.63
2023-03-18T10:17:06.322Z,98317.94
2023-03-18T10:20:29.190Z,98308.16
2023-03-18T10:24:19.659Z,98311.44
2023-03-18T10:27:53.869Z,98315.75
2023-03-18T10:31:22.729Z,98306.91
2023-03-18T10:34:38.045Z,98297.22
2023-03-18T10:38:21.910Z,98299.06
2023-03-18T10:41:27.048Z,98296.28
2023-03-18T10:44:36.992Z,98295.59
2023-03-18T10:47:42.328Z,98278.31
2023-03-18T10:51:12.889Z,98302.28
2023-03-18T10:54:50.685Z,98292.84
2023-03-18T10:57:53.227Z,98282.75
2023-03-18T11:00:56.254Z,98281.69
2023-03-18T11:04:01.842Z,98276.16
2023-03-18T11:07:08.150Z,98282.75
2023-03-18T11:10:18.342Z,98273.72
2023-03-18T11:13:22.415Z,98274.13
2023-03-18T11:16:30.794Z,98277.00
2023-03-18T11:20:01.003Z,98267.41
2023-03-18T11:23:13.867Z,98268.47
2023-03-18T11:26:24.281Z,98265.38
2023-03-18T11:29:33.235Z,98250.88
2023-03-18T11:32:37.516Z,98251.78
2023-03-18T11:35:48.439Z,98255.22
2023-03-18T11:39:05.890Z,98252.00
2023-03-18T11:42:26.725Z,98251.31
2023-03-18T11:45:44.752Z,98252.09
2023-03-18T11:48:47.396Z,98248.16
2023-03-18T11:52:05.396Z,98243.19
2023-03-18T11:55:18.880Z,98235.41
2023-03-18T11:58:28.827Z,98237.53
2023-03-18T12:01:57.947Z,98237.28
2023-03-18T12:05:12.956Z,98236.31
2023-03-18T12:08:22.942Z,98234.19
2023-03-18T12:11:28.978Z,98226.06
2023-03-18T12:14:31.514Z,98222.09
2023-03-18T12:17:45.333Z,98216.13
2023-03-18T12:20:55.692Z,98212.63
2023-03-18T12:24:04.307Z,98202.25
2023-03-18T12:27:25.144Z,98212.75
2023-03-18T12:30:37.123Z,98219.56
2023-03-18T12:33:58.574Z,98212.19
2023-03-18T12:37:20.069Z,98220.69
2023-03-18T12:40:41.616Z,98219.25
2023-03-18T12:44:06.931Z,98209.75
2023-03-18T12:47:21.579Z,98218.25
2023-03-18T12:50:54.255Z,98201.03
2023-03-18T12:54:01.121Z,98197.28
2023-03-18T12:57:13.069Z,98204.53
2023-03-18T13:00:28.425Z,98199.25
2023-03-18T13:03:35.704Z,98193.16
2023-03-18T13:06:42.540Z,98194.63
2023-03-18T13:10:14.689Z,98191.16
2023-03-18T13:13:17.568Z,98192.34
2023-03-18T13:16:22.339Z,98197.78
2023-03-18T13:19:26.433Z,98193.31
2023-03-18T13:23:01.922Z,98189.38
2023-03-18T13:26:34.987Z,98181.13
2023-03-18T13:29:53.348Z,98189.94
2023-03-18T13:33:14.824Z,98182.94
2023-03-18T13:36:17.658Z,98179.78
2023-03-18T13:39:42.477Z,98183.38
2023-03-18T13:42:45.942Z,98181.13
2023-03-18T13:45:53.895Z,98178.16
2023-03-18T13:48:59.143Z,98173.03
2023-03-18T13:52:04.311Z,98180.94
2023-03-18T13:55:33.242Z,98173.66
2023-03-18T13:58:48.430Z,98170.69
2023-03-18T14:01:51.431Z,98169.53
2023-03-18T14:04:54.728Z,98161.63
2023-03-18T14:07:57.602Z,98159.69
2023-03-18T14:11:23.288Z,98158.66
2023-03-18T14:14:54.158Z,98157.72
2023-03-18T14:17:59.007Z,98154.75
2023-03-18T14:21:03.702Z,98151.78
2023-03-18T14:24:18.495Z,98158.38
2023-03-18T14:27:23.008Z,98158.53
2023-03-18T14:30:35.020Z,98151.63
2023-03-18T14:34:10.496Z,98156.06
2023-03-18T14:37:21.282Z,98146.94
2023-03-18T14:40:23.993Z,98151.41
2023-03-18T14:43:45.263Z,98146.13
2023-03-18T14:46:51.919Z,98154.19
2023-03-18T14:50:04.418Z,98147.78
2023-03-18T14:53:17.416Z,98152.50
2023-03-18T14:56:22.983Z,98143.78
2023-03-18T14:59:25.883Z,98156.66
2023-03-18T15:02:34.618Z,98144.13
2023-03-18T15:05:42.622Z,98147.06
2023-03-18T15:09:19.624Z,98141.97
2023-03-18T15:12:28.559Z,98139.47
2023-03-18T15:15:32.664Z,98135.34
2023-03-18T15:18:38.315Z,98137.63
2023-03-18T15:21:41.559Z,98142.13
2023-03-18T15:24:44.349Z,98134.16
2023-03-18T15:27:48.594Z,98126.28
2023-03-18T15:30:54.735Z,98134.78
2023-03-18T15:34:15.611Z,98124.19
2023-03-18T15:37:24.370Z,98123.25
2023-03-18T15:40:33.535Z,98125.69
2023-03-18T15:43:42.832Z,98123.94
2023-03-18T15:46:48.610Z,98127.84
2023-03-18T15:50:02.495Z,98130.78
2023-03-18T15:53:25.916Z,98132.44
2023-03-18T15:56:32.268Z,98128.19
2023-03-18T15:59:35.776Z,98131.81
2023-03-18T16:02:38.672Z,98132.41
2023-03-18T16:05:41.937Z,98132.28
2023-03-18T16:08:46.387Z,98132.78
2023-03-18T16:12:08.955Z,98131.34
2023-03-18T16:15:24.306Z,98126.06
2023-03-18T16:18:27.367Z,98133.66
2023-03-18T16:21:30.192Z,98136.19
2023-03-18T16:24:32.894Z,98140.69
2023-03-18T16:27:42.038Z,98144.91
2023-03-18T16:30:45.208Z,98144.91
2023-03-18T16:33:50.366Z,98144.69
2023-03-18T16:36:53.838Z,98149.78
2023-03-18T16:39:57.729Z,98146.72
2023-03-18T16:43:00.586Z,98150.25
2023-03-18T16:46:06.724Z,98157.22
2023-03-18T16:49:21.525Z,98161.03
2023-03-18T16:52:24.242Z,98162.09
2023-03-18T16:55:27.130Z,98163.72
2023-03-18T16:58:35.670Z,98164.81
2023-03-18T17:01:38.781Z,98160.72
2023-03-18T17:04:43.087Z,98164.91
2023-03-18T17:07:45.923Z,98157.44
2023-03-18T17:10:51.725Z,98167.97
2023-03-18T17:13:54.933Z,98173.00
2023-03-18T17:17:00.155Z,98179.69
2023-03-18T17:20:04.614Z,98185.50
2023-03-18T17:23:09.850Z,98190.75
2023-03-18T17:26:15.277Z,98188.56
2023-03-18T17:29:27.056Z,98179.44
2023-03-18T17:32:29.947Z,98181.50
2023-03-18T17:35:33.218Z,98192.63
2023-03-18T17:38:36.762Z,98200.53
2023-03-18T17:41:40.046Z,98198.03
2023-03-18T17:44:42.736Z,98206.44
2023-03-18T17:47:46.081Z,98205.81
2023-03-18T17:50:54.040Z,98201.09
2023-03-18T17:53:59.459Z,98197.97
2023-03-18T17:57:04.003Z,98190.78
2023-03-18T18:00:24.731Z,98199.72
2023-03-18T18:03:29.609Z,98196.94
2023-03-18T18:06:33.936Z,98194.81
2023-03-18T18:09:36.859Z,98199.88
2023-03-18T18:12:39.517Z,98204.75
2023-03-18T18:15:42.612Z,98195.56
2023-03-18T18:18:47.762Z,98196.47
2023-03-18T18:21:53.436Z,98203.38
2023-03-18T18:24:58.029Z,98198.25
2023-03-18T18:28:01.308Z,98190.81
2023-03-18T18:31:07.848Z,98206.88
2023-03-18T18:34:10.703Z,98211.84
2023-03-18T18:37:14.258Z,98210.44
2023-03-18T18:40:18.324Z,98201.94
2023-03-18T18:43:22.476Z,98214.84
2023-03-18T18:46:26.719Z,98218.78
2023-03-18T18:49:29.540Z,98210.13
2023-03-18T18:52:34.333Z,98212.13
2023-03-18T18:55:37.329Z,98217.34
2023-03-18T18:58:40.597Z,98226.25
2023-03-18T19:01:43.329Z,98227.91
2023-03-18T19:04:46.885Z,98231.94
2023-03-18T19:07:50.571Z,98224.47
2023-03-18T19:10:59.254Z,98234.22
2023-03-18T19:14:24.834Z,98233.25
2023-03-18T19:17:27.743Z,98224.97
2023-03-18T19:20:31.182Z,98229.94
2023-03-18T19:23:35.449Z,98231.59
2023-03-18T19:26:38.232Z,98232.31
2023-03-18T19:29:44.826Z,98234.81
2023-03-18T19:32:47.771Z,98237.06
2023-03-18T19:35:51.524Z,98236.84
2023-03-18T19:38:55.879Z,98233.25
2023-03-18T19:41:59.083Z,98232.53
2023-03-18T19:45:02.180Z,98249.84
2023-03-18T19:48:05.109Z,98250.53
2023-03-18T19:51:08.863Z,98241.72
2023-03-18T19:54:21.765Z,98244.78
2023-03-18T19:57:27.904Z,98250.94
2023-03-18T20:00:31.109Z,98241.97
2023-03-18T20:03:34.651Z,98245.09
2023-03-18T20:06:37.438Z,98247.53
2023-03-18T20:09:40.197Z,98250.13
2023-03-18T20:12:46.240Z,98251.19
2023-03-18T20:15:49.401Z,98252.00
2023-03-18T20:18:52.343Z,98251.13
2023-03-18T20:21:55.804Z,98258.31
2023-03-18T20:24:58.705Z,98257.03
2023-03-18T20:28:02.517Z,98256.25
2023-03-18T20:31:06.401Z,98255.31
2023-03-18T20:34:09.353Z,98258.66
2023-03-18T20:37:29.409Z,98250.88
2023-03-18T20:40:32.405Z,98247.28
2023-03-18T20:43:35.363Z,98256.25
2023-03-18T20:46:38.327Z,98252.28
2023-03-18T20:49:44.809Z,98256.34
2023-03-18T20:52:49.282Z,98259.19
2023-03-18T20:55:52.379Z,98259.66
2023-03-18T20:58:55.166Z,98252.28
2023-03-18T21:01:58.968Z,98256.19
2023-03-18T21:05:02.476Z,98263.59
2023-03-18T21:08:05.482Z,98264.97
2023-03-18T21:11:19.425Z,98263.13
2023-03-18T21:14:22.204Z,98258.66
2023-03-18T21:17:28.732Z,98260.66
2023-03-18T21:20:32.772Z,98255.53
2023-03-18T21:23:36.871Z,98257.19
2023-03-18T21:26:39.807Z,98252.41
2023-03-18T21:29:43.034Z,98256.97
2023-03-18T21:32:46.544Z,98263.47
2023-03-18T21:35:52.239Z,98257.41
2023-03-18T21:38:55.083Z,98255.94
2023-03-18T21:41:57.795Z,98257.41
2023-03-18T21:45:00.753Z,98250.53
2023-03-18T21:48:03.480Z,98252.94
2023-03-18T21:51:08.201Z,98246.59
2023-03-18T21:54:20.220Z,98254.50
2023-03-18T21:57:23.919Z,98246.97
2023-03-18T22:00:27.285Z,98249.56
2023-03-18T22:03:30.610Z,98249.06
2023-03-18T22:06:34.472Z,98250.69
2023-03-18T22:09:37.819Z,98244.88
2023-03-18T22:12:40.849Z,98241.66
2023-03-18T22:15:44.151Z,98239.34
2023-03-18T22:18:47.894Z,98237.19
2023-03-18T22:21:50.481Z,98241.72
2023-03-18T22:24:54.450Z,98241.19
2023-03-18T22:27:59.050Z,98247.03
2023-03-18T22:31:03.322Z,98249.09
2023-03-18T22:34:23.108Z,98249.91
2023-03-18T22:37:26.651Z,98250.63
2023-03-18T22:40:31.507Z,98263.41
2023-03-18T22:43:38.051Z,98253.56
2023-03-18T22:46:40.820Z,98254.16
2023-03-18T22:49:44.327Z,98255.38
2023-03-18T22:52:48.963Z,98259.34
2023-03-18T22:55:54.730Z,98258.25
2023-03-18T22:58:57.336Z,98256.09
2023-03-18T23:02:00.803Z,98256.69
2023-03-18T23:05:03.809Z,98252.06
2023-03-18T23:08:06.630Z,98257.66
2023-03-18T23:11:09.574Z,98258.78
2023-03-18T23:14:12.796Z,98250.25
2023-03-18T23:17:20.858Z,98258.97
2023-03-18T23:20:23.470Z,98262.91
2023-03-18T23:23:28.380Z,98262.34
2023-03-18T23:26:33.134Z,98267.84
2023-03-18T23:29:36.001Z,98269.66
2023-03-18T23:32:39.364Z,98280.69
2023-03-18T23:35:43.053Z,98267.94
2023-03-18T23:38:46.191Z,98264.41
2023-03-18T23:41:49.013Z,98262.97
2023-03-18T23:44:51.540Z,98263.22
2023-03-18T23:47:55.409Z,98266.97
2023-03-18T23:50:58.026Z,98259.38
2023-03-18T23:54:00.916Z,98261.72
2023-03-18T23:57:04.624Z,98259.22
